createdAt,value
2023-03-06T00:00:36.042Z,96031.63
2023-03-06T00:03:02.965Z,96005.25
2023-03-06T00:05:29.559Z,96029.59
2023-03-06T00:07:56.352Z,96011.84
2023-03-06T00:10:26.583Z,96009.69
2023-03-06T00:12:58.115Z,96014.25
2023-03-06T00:15:25.820Z,96016.84
2023-03-06T00:17:52.720Z,96009.91
2023-03-06T00:20:20.841Z,96008.72
2023-03-06T00:22:48.022Z,96024.00
2023-03-06T00:25:17.992Z,96011.88
2023-03-06T00:27:44.903Z,95992.16
2023-03-06T00:30:14.730Z,95986.41
2023-03-06T00:32:42.583Z,95994.56
2023-03-06T00:35:09.783Z,95994.75
2023-03-06T00:37:36.530Z,95986.81
2023-03-06T00:40:06.308Z,95987.78
2023-03-06T00:42:32.866Z,95980.66
2023-03-06T00:44:59.410Z,95979.25
2023-03-06T00:47:25.926Z,95969.91
2023-03-06T00:49:52.429Z,95960.78
2023-03-06T00:52:19.017Z,95963.53
2023-03-06T00:54:45.579Z,95950.97
2023-03-06T00:57:12.064Z,95960.16
2023-03-06T00:59:38.685Z,95964.91
2023-03-06T01:02:06.561Z,95961.94
2023-03-06T01:04:33.189Z,95945.00
2023-03-06T01:06:59.758Z,95958.94
2023-03-06T01:09:26.321Z,95964.06
2023-03-06T01:11:53.743Z,95967.81
2023-03-06T01:14:20.285Z,95963.03
2023-03-06T01:16:47.315Z,95951.28
2023-03-06T01:19:17.199Z,95953.63
2023-03-06T01:21:44.944Z,95945.88
2023-03-06T01:24:11.566Z,95945.06
2023-03-06T01:26:38.161Z,95938.72
2023-03-06T01:29:04.830Z,95943.25
2023-03-06T01:31:31.957Z,95929.16
2023-03-06T01:33:58.556Z,95908.03
2023-03-06T01:36:25.128Z,95913.41
2023-03-06T01:38:51.760Z,95921.22
2023-03-06T01:41:21.157Z,95918.00
2023-03-06T01:43:48.644Z,95912.88
2023-03-06T01:46:37.989Z,95907.44
2023-03-06T01:49:26.772Z,95913.44
2023-03-06T01:51:53.230Z,95910.91
2023-03-06T01:54:27.022Z,95909.91
2023-03-06T01:57:02.704Z,95884.22
2023-03-06T01:59:30.288Z,95890.81
2023-03-06T02:01:58.465Z,95888.41
2023-03-06T02:04:25.072Z,95877.50
2023-03-06T02:06:51.937Z,95897.78
2023-03-06T02:09:18.655Z,95890.63
2023-03-06T02:11:46.311Z,95890.22
2023-03-06T02:14:16.337Z,95887.88
2023-03-06T02:16:44.263Z,95884.72
2023-03-06T02:19:27.652Z,95884.16
2023-03-06T02:21:54.657Z,95855.50
2023-03-06T02:24:43.680Z,95865.66
2023-03-06T02:27:12.533Z,95874.22
2023-03-06T02:29:39.038Z,95865.09
2023-03-06T02:32:05.943Z,95867.47
2023-03-06T02:34:45.973Z,95865.69
2023-03-06T02:37:12.616Z,95857.34
2023-03-06T02:39:53.146Z,95859.94
2023-03-06T02:42:26.576Z,95857.53
2023-03-06T02:44:56.616Z,95862.13
2023-03-06T02:47:23.199Z,95853.59
2023-03-06T02:49:49.738Z,95830.50
2023-03-06T02:52:17.846Z,95842.66
2023-03-06T02:54:44.426Z,95850.03
2023-03-06T02:57:12.020Z,95831.72
2023-03-06T02:59:38.881Z,95845.63
2023-03-06T03:02:06.119Z,95827.34
2023-03-06T03:04:34.203Z,95827.19
2023-03-06T03:07:01.541Z,95804.28
2023-03-06T03:09:28.393Z,95820.97
2023-03-06T03:11:54.931Z,95805.66
2023-03-06T03:14:23.917Z,95810.44
2023-03-06T03:16:50.416Z,95821.38
2023-03-06T03:19:17.300Z,95797.13
2023-03-06T03:21:43.845Z,95826.34
2023-03-06T03:24:10.435Z,95810.25
2023-03-06T03:26:37.000Z,95813.41
2023-03-06T03:29:10.713Z,95818.81
2023-03-06T03:31:37.581Z,95801.13
2023-03-06T03:34:04.154Z,95806.50
2023-03-06T03:36:33.902Z,95793.81
2023-03-06T03:39:00.643Z,95802.53
2023-03-06T03:41:27.310Z,95808.31
2023-03-06T03:43:53.828Z,95795.56
2023-03-06T03:46:21.563Z,95786.66
2023-03-06T03:48:49.291Z,95774.69
2023-03-06T03:51:17.616Z,95763.59
2023-03-06T03:53:49.293Z,95772.53
2023-03-06T03:56:19.487Z,95778.91
2023-03-06T03:58:54.558Z,95764.78
2023-03-06T04:01:22.194Z,95779.47
2023-03-06T04:03:49.031Z,95784.44
2023-03-06T04:06:17.546Z,95792.00
2023-03-06T04:08:44.745Z,95787.44
2023-03-06T04:11:11.861Z,95769.53
2023-03-06T04:13:38.418Z,95773.31
2023-03-06T04:16:06.100Z,95763.00
2023-03-06T04:18:34.054Z,95776.72
2023-03-06T04:21:04.399Z,95754.06
2023-03-06T04:23:31.868Z,95769.53
2023-03-06T04:25:58.821Z,95765.78
2023-03-06T04:28:25.581Z,95761.81
2023-03-06T04:30:52.269Z,95766.00
2023-03-06T04:33:19.885Z,95752.25
2023-03-06T04:35:46.468Z,95764.22
2023-03-06T04:38:18.798Z,95744.72
2023-03-06T04:40:45.626Z,95749.69
2023-03-06T04:43:12.366Z,95748.13
2023-03-06T04:45:39.065Z,95728.84
2023-03-06T04:48:05.968Z,95745.34
2023-03-06T04:50:32.575Z,95722.88
2023-03-06T04:53:03.480Z,95741.94
2023-03-06T04:55:30.691Z,95736.38
2023-03-06T04:57:57.727Z,95696.44
2023-03-06T05:00:30.521Z,95741.38
2023-03-06T05:02:59.642Z,95743.34
2023-03-06T05:05:26.772Z,95734.81
2023-03-06T05:07:54.648Z,95737.19
2023-03-06T05:10:21.617Z,95737.19
2023-03-06T05:12:48.197Z,95704.81
2023-03-06T05:15:14.727Z,95729.47
2023-03-06T05:17:41.610Z,95706.38
2023-03-06T05:20:11.968Z,95717.31
2023-03-06T05:22:38.596Z,95727.06
2023-03-06T05:25:05.762Z,95727.66
2023-03-06T05:27:32.297Z,95722.69
2023-03-06T05:29:59.236Z,95706.59
2023-03-06T05:32:25.891Z,95698.84
2023-03-06T05:34:52.462Z,95713.91
2023-03-06T05:37:19.137Z,95704.00
2023-03-06T05:39:45.835Z,95724.28
2023-03-06T05:42:12.367Z,95722.69
2023-03-06T05:44:38.982Z,95724.09
2023-03-06T05:47:05.691Z,95719.91
2023-03-06T05:49:34.290Z,95721.91
2023-03-06T05:52:03.903Z,95727.06
2023-03-06T05:54:32.014Z,95726.28
2023-03-06T05:56:58.713Z,95710.97
2023-03-06T05:59:28.408Z,95708.00
2023-03-06T06:01:56.086Z,95715.56
2023-03-06T06:04:23.966Z,95723.91
2023-03-06T06:06:58.978Z,95726.47
2023-03-06T06:09:26.815Z,95709.78
2023-03-06T06:12:02.034Z,95720.31
2023-03-06T06:14:29.953Z,95721.91
2023-03-06T06:16:56.630Z,95720.69
2023-03-06T06:19:23.168Z,95725.47
2023-03-06T06:21:51.841Z,95723.28
2023-03-06T06:24:21.019Z,95692.72
2023-03-06T06:26:50.367Z,95711.56
2023-03-06T06:29:17.089Z,95716.34
2023-03-06T06:31:43.618Z,95715.16
2023-03-06T06:34:13.584Z,95720.31
2023-03-06T06:36:40.632Z,95713.75
2023-03-06T06:39:08.649Z,95684.56
2023-03-06T06:41:54.960Z,95711.38
2023-03-06T06:44:21.933Z,95706.81
2023-03-06T06:47:21.393Z,95700.84
2023-03-06T06:49:37.168Z,95695.06
2023-03-06T06:52:05.273Z,95680.41
2023-03-06T06:54:33.512Z,95717.53
2023-03-06T06:57:00.556Z,95697.47
2023-03-06T06:59:27.037Z,95701.03
2023-03-06T07:01:53.613Z,95728.63
2023-03-06T07:04:20.453Z,95710.53
2023-03-06T07:06:46.986Z,95714.72
2023-03-06T07:09:14.065Z,95731.41
2023-03-06T07:11:41.234Z,95705.19
2023-03-06T07:14:07.806Z,95709.56
2023-03-06T07:16:34.411Z,95718.88
2023-03-06T07:19:00.905Z,95700.81
2023-03-06T07:21:27.519Z,95709.78
2023-03-06T07:23:57.159Z,95729.81
2023-03-06T07:26:27.471Z,95708.16
2023-03-06T07:28:54.333Z,95707.78
2023-03-06T07:31:23.360Z,95730.16
2023-03-06T07:33:50.801Z,95728.59
2023-03-06T07:36:17.945Z,95729.81
2023-03-06T07:38:44.692Z,95741.06
2023-03-06T07:41:13.592Z,95738.88
2023-03-06T07:43:41.679Z,95742.44
2023-03-06T07:46:09.735Z,95709.50
2023-03-06T07:48:37.699Z,95748.78
2023-03-06T07:51:13.161Z,95747.56
2023-03-06T07:53:39.614Z,95750.78
2023-03-06T07:56:08.980Z,95734.41
2023-03-06T07:58:37.741Z,95743.38
2023-03-06T08:01:06.245Z,95750.66
2023-03-06T08:03:33.308Z,95749.25
2023-03-06T08:06:13.941Z,95740.72
2023-03-06T08:08:42.413Z,95744.09
2023-03-06T08:11:10.549Z,95741.34
2023-03-06T08:13:37.496Z,95745.69
2023-03-06T08:16:05.200Z,95751.03
2023-03-06T08:18:32.007Z,95737.22
2023-03-06T08:21:06.852Z,95757.25
2023-03-06T08:23:34.146Z,95736.59
2023-03-06T08:26:04.441Z,95726.47
2023-03-06T08:28:31.455Z,95754.00
2023-03-06T08:30:58.459Z,95736.28
2023-03-06T08:33:25.127Z,95749.06
2023-03-06T08:35:52.661Z,95739.78
2023-03-06T08:38:19.189Z,95723.25
2023-03-06T08:40:45.665Z,95722.16
2023-03-06T08:43:14.110Z,95750.78
2023-03-06T08:45:41.007Z,95729.25
2023-03-06T08:48:07.525Z,95742.66
2023-03-06T08:50:33.913Z,95757.56
2023-03-06T08:53:00.577Z,95746.34
2023-03-06T08:55:28.171Z,95742.66
2023-03-06T08:57:54.688Z,95740.41
2023-03-06T09:00:21.473Z,95754.53
2023-03-06T09:02:47.991Z,95752.94
2023-03-06T09:05:14.509Z,95737.22
2023-03-06T09:07:40.961Z,95746.75
2023-03-06T09:10:08.355Z,95750.84
2023-03-06T09:12:48.632Z,95744.00
2023-03-06T09:15:17.379Z,95749.53
2023-03-06T09:17:43.996Z,95741.91
2023-03-06T09:20:11.864Z,95737.69
2023-03-06T09:22:38.762Z,95728.72
2023-03-06T09:25:06.094Z,95726.78
2023-03-06T09:27:33.005Z,95716.22
2023-03-06T09:29:59.491Z,95698.34
2023-03-06T09:32:26.009Z,95745.94
2023-03-06T09:34:52.585Z,95719.19
2023-03-06T09:37:19.049Z,95729.06
2023-03-06T09:39:45.410Z,95728.88
2023-03-06T09:42:23.658Z,95736.34
2023-03-06T09:44:54.465Z,95737.22
2023-03-06T09:47:56.660Z,95737.78
2023-03-06T09:50:39.871Z,95744.56
2023-03-06T09:53:23.195Z,95750.09
2023-03-06T09:56:31.843Z,95699.22
2023-03-06T09:59:13.865Z,95717.78
2023-03-06T10:01:43.265Z,95726.69
2023-03-06T10:04:32.222Z,95725.75
2023-03-06T10:07:04.469Z,95729.38
2023-03-06T10:09:48.904Z,95743.38
2023-03-06T10:12:23.657Z,95727.81
2023-03-06T10:15:10.541Z,95727.75
2023-03-06T10:17:43.761Z,95693.72
2023-03-06T10:20:18.841Z,95716.53
2023-03-06T10:23:01.195Z,95712.81
2023-03-06T10:25:42.942Z,95690.28
2023-03-06T10:28:18.143Z,95692.13
2023-03-06T10:30:55.731Z,95707.47
2023-03-06T10:33:51.517Z,95707.34
2023-03-06T10:36:20.461Z,95693.28
2023-03-06T10:38:48.703Z,95714.28
2023-03-06T10:41:24.944Z,95698.31
2023-03-06T10:44:00.571Z,95708.09
2023-03-06T10:46:29.506Z,95689.16
2023-03-06T10:49:02.528Z,95704.41
2023-03-06T10:51:31.111Z,95703.13
2023-03-06T10:54:01.450Z,95698.28
2023-03-06T10:56:36.495Z,95703.19
2023-03-06T10:59:08.785Z,95701.59
2023-03-06T11:01:35.577Z,95706.81
2023-03-06T11:04:21.205Z,95695.03
2023-03-06T11:06:48.078Z,95676.59
2023-03-06T11:09:22.137Z,95688.25
2023-03-06T11:11:50.012Z,95696.13
2023-03-06T11:14:27.502Z,95655.69
2023-03-06T11:16:54.355Z,95658.72
2023-03-06T11:19:27.314Z,95698.13
2023-03-06T11:22:17.763Z,95690.94
2023-03-06T11:24:49.045Z,95680.16
2023-03-06T11:27:36.631Z,95692.59
2023-03-06T11:30:05.327Z,95693.97
2023-03-06T11:32:45.809Z,95689.38
2023-03-06T11:35:20.378Z,95693.53
2023-03-06T11:37:54.943Z,95692.00
2023-03-06T11:40:30.193Z,95681.28
2023-03-06T11:43:17.343Z,95662.66
2023-03-06T11:46:02.273Z,95676.81
2023-03-06T11:48:37.997Z,95673.09
2023-03-06T11:51:35.703Z,95671.78
2023-03-06T11:54:03.168Z,95657.81
2023-03-06T11:56:51.659Z,95675.69
2023-03-06T11:59:31.929Z,95640.13
2023-03-06T12:02:20.291Z,95663.44
2023-03-06T12:04:55.035Z,95657.34
2023-03-06T12:07:25.464Z,95665.47
2023-03-06T12:10:17.259Z,95659.44
2023-03-06T12:13:08.864Z,95639.69
2023-03-06T12:16:07.987Z,95639.06
2023-03-06T12:19:13.708Z,95640.44
2023-03-06T12:22:12.693Z,95637.91
2023-03-06T12:25:05.617Z,95641.41
2023-03-06T12:27:44.133Z,95615.47
2023-03-06T12:30:13.672Z,95642.19
2023-03-06T12:33:05.209Z,95645.06
2023-03-06T12:35:37.393Z,95648.16
2023-03-06T12:38:40.834Z,95652.47
2023-03-06T12:41:22.802Z,95645.34
2023-03-06T12:44:01.302Z,95656.59
2023-03-06T12:46:30.434Z,95659.19
2023-03-06T12:49:32.085Z,95663.25
2023-03-06T12:52:00.932Z,95641.78
2023-03-06T12:54:30.631Z,95648.59
2023-03-06T12:56:59.727Z,95635.13
2023-03-06T12:59:37.115Z,95653.75
2023-03-06T13:02:17.861Z,95656.25
2023-03-06T13:04:56.785Z,95657.28
2023-03-06T13:07:45.473Z,95646.44
2023-03-06T13:10:29.246Z,95637.84
2023-03-06T13:13:01.612Z,95650.50
2023-03-06T13:16:04.112Z,95656.16
2023-03-06T13:18:33.554Z,95654.66
2023-03-06T13:21:00.048Z,95659.97
2023-03-06T13:23:33.468Z,95663.25
2023-03-06T13:26:05.375Z,95662.31
2023-03-06T13:28:45.051Z,95645.03
2023-03-06T13:31:26.433Z,95615.13
2023-03-06T13:33:58.505Z,95658.31
2023-03-06T13:36:27.782Z,95645.41
2023-03-06T13:38:54.367Z,95664.53
2023-03-06T13:41:20.828Z,95667.31
2023-03-06T13:43:47.755Z,95661.34
2023-03-06T13:46:24.866Z,95637.28
2023-03-06T13:49:09.532Z,95657.41
2023-03-06T13:51:42.134Z,95644.94
2023-03-06T13:54:29.782Z,95649.94
2023-03-06T13:57:27.480Z,95636.03
2023-03-06T14:00:27.955Z,95645.97
2023-03-06T14:03:31.009Z,95640.00
2023-03-06T14:05:58.901Z,95628.91
2023-03-06T14:08:31.681Z,95642.25
2023-03-06T14:11:17.148Z,95627.34
2023-03-06T14:13:49.733Z,95640.97
2023-03-06T14:16:32.665Z,95625.28
2023-03-06T14:19:04.143Z,95634.78
2023-03-06T14:21:51.066Z,95642.59
2023-03-06T14:24:19.814Z,95626.63
2023-03-06T14:26:49.888Z,95620.19
2023-03-06T14:29:25.231Z,95638.63
2023-03-06T14:31:53.916Z,95639.19
2023-03-06T14:34:32.854Z,95642.59
2023-03-06T14:37:05.609Z,95642.13
2023-03-06T14:39:41.684Z,95641.78
2023-03-06T14:42:21.041Z,95633.78
2023-03-06T14:44:49.675Z,95615.00
2023-03-06T14:47:33.950Z,95635.13
2023-03-06T14:50:36.264Z,95629.81
2023-03-06T14:53:19.278Z,95611.03
2023-03-06T14:55:57.996Z,95629.13
2023-03-06T14:58:33.377Z,95631.84
2023-03-06T15:01:04.983Z,95608.69
2023-03-06T15:03:42.797Z,95632.66
2023-03-06T15:06:25.112Z,95613.31
2023-03-06T15:09:07.583Z,95631.84
2023-03-06T15:11:58.812Z,95621.34
2023-03-06T15:14:42.392Z,95610.50
2023-03-06T15:17:17.944Z,95629.13
2023-03-06T15:19:54.473Z,95632.75
2023-03-06T15:22:34.521Z,95634.69
2023-03-06T15:25:24.256Z,95625.53
2023-03-06T15:27:56.717Z,95629.34
2023-03-06T15:30:29.174Z,95627.69
2023-03-06T15:33:11.159Z,95628.59
2023-03-06T15:35:38.554Z,95607.09
2023-03-06T15:38:23.744Z,95627.22
2023-03-06T15:40:55.692Z,95627.56
2023-03-06T15:43:22.220Z,95618.28
2023-03-06T15:45:48.820Z,95622.25
2023-03-06T15:48:18.382Z,95633.41
2023-03-06T15:50:44.925Z,95634.13
2023-03-06T15:53:11.383Z,95633.78
2023-03-06T15:55:37.946Z,95633.63
2023-03-06T15:58:04.701Z,95637.25
2023-03-06T16:00:34.222Z,95637.47
2023-03-06T16:03:01.875Z,95634.53
2023-03-06T16:05:29.433Z,95636.44
2023-03-06T16:07:56.593Z,95615.88
2023-03-06T16:10:27.287Z,95636.69
2023-03-06T16:12:56.997Z,95635.31
2023-03-06T16:15:29.682Z,95636.22
2023-03-06T16:17:57.258Z,95602.25
2023-03-06T16:20:25.652Z,95634.03
2023-03-06T16:22:55.268Z,95638.16
2023-03-06T16:25:24.685Z,95640.09
2023-03-06T16:27:59.064Z,95638.25
2023-03-06T16:30:31.269Z,95626.78
2023-03-06T16:32:58.177Z,95624.19
2023-03-06T16:35:25.867Z,95633.91
2023-03-06T16:37:52.646Z,95627.72
2023-03-06T16:40:25.153Z,95650.34
2023-03-06T16:42:54.044Z,95659.88
2023-03-06T16:45:22.673Z,95644.03
2023-03-06T16:47:50.005Z,95660.84
2023-03-06T16:50:32.912Z,95663.69
2023-03-06T16:52:59.469Z,95619.75
2023-03-06T16:55:27.062Z,95646.38
2023-03-06T16:57:53.670Z,95626.75
2023-03-06T17:00:21.685Z,95672.25
2023-03-06T17:02:49.455Z,95649.03
2023-03-06T17:05:16.319Z,95665.09
2023-03-06T17:07:42.792Z,95665.31
2023-03-06T17:10:10.871Z,95675.56
2023-03-06T17:12:37.368Z,95669.81
2023-03-06T17:15:04.795Z,95668.06
2023-03-06T17:17:31.679Z,95667.34
2023-03-06T17:19:58.356Z,95662.22
2023-03-06T17:22:25.236Z,95648.09
2023-03-06T17:24:52.257Z,95643.69
2023-03-06T17:27:20.547Z,95635.03
2023-03-06T17:29:47.616Z,95680.53
2023-03-06T17:32:14.461Z,95687.47
2023-03-06T17:34:41.202Z,95632.41
2023-03-06T17:37:07.636Z,95681.88
2023-03-06T17:39:36.653Z,95687.06
2023-03-06T17:42:04.618Z,95691.66
2023-03-06T17:44:32.372Z,95695.25
2023-03-06T17:46:59.239Z,95664.47
2023-03-06T17:49:25.737Z,95676.25
2023-03-06T17:51:52.412Z,95693.88
2023-03-06T17:54:19.726Z,95704.06
2023-03-06T17:56:46.326Z,95704.66
2023-03-06T17:59:12.872Z,95682.53
2023-03-06T18:01:39.420Z,95676.75
2023-03-06T18:04:06.280Z,95706.88
2023-03-06T18:06:33.785Z,95703.16
2023-03-06T18:09:02.382Z,95694.81
2023-03-06T18:11:28.997Z,95663.28
2023-03-06T18:13:55.477Z,95662.69
2023-03-06T18:16:24.944Z,95704.75
2023-03-06T18:18:53.424Z,95702.78
2023-03-06T18:21:21.164Z,95690.66
2023-03-06T18:23:47.710Z,95645.69
2023-03-06T18:26:28.305Z,95649.78
2023-03-06T18:28:57.604Z,95701.81
2023-03-06T18:31:33.769Z,95699.06
2023-03-06T18:34:04.286Z,95702.84
2023-03-06T18:36:33.032Z,95686.75
2023-03-06T18:39:02.028Z,95704.81
2023-03-06T18:41:28.504Z,95675.88
2023-03-06T18:43:55.964Z,95703.03
2023-03-06T18:46:23.677Z,95703.84
2023-03-06T18:48:50.292Z,95640.59
2023-03-06T18:51:17.781Z,95706.41
2023-03-06T18:53:44.354Z,95675.66
2023-03-06T18:56:21.313Z,95699.66
2023-03-06T18:58:48.299Z,95702.66
2023-03-06T19:01:15.376Z,95645.13
2023-03-06T19:03:42.060Z,95666.94
2023-03-06T19:06:11.759Z,95702.38
2023-03-06T19:08:39.449Z,95700.81
2023-03-06T19:11:15.417Z,95683.78
2023-03-06T19:13:42.246Z,95711.19
2023-03-06T19:16:15.767Z,95695.75
2023-03-06T19:18:42.264Z,95698.44
2023-03-06T19:21:09.670Z,95713.63
2023-03-06T19:23:36.387Z,95695.94
2023-03-06T19:26:02.884Z,95687.78
2023-03-06T19:28:29.447Z,95691.16
2023-03-06T19:30:56.952Z,95705.84
2023-03-06T19:33:23.600Z,95662.44
2023-03-06T19:35:50.152Z,95660.41
2023-03-06T19:38:16.764Z,95716.28
2023-03-06T19:40:52.160Z,95689.78
2023-03-06T19:43:18.680Z,95698.28
2023-03-06T19:45:45.296Z,95665.13
2023-03-06T19:48:12.496Z,95718.03
2023-03-06T19:50:40.261Z,95650.25
2023-03-06T19:53:07.745Z,95696.22
2023-03-06T19:55:34.633Z,95718.03
2023-03-06T19:58:01.174Z,95677.66
2023-03-06T20:00:28.131Z,95707.38
2023-03-06T20:02:55.272Z,95714.53
2023-03-06T20:05:22.257Z,95701.59
2023-03-06T20:07:49.757Z,95709.31
2023-03-06T20:10:16.749Z,95674.44
2023-03-06T20:12:43.232Z,95688.69
2023-03-06T20:15:10.536Z,95697.88
2023-03-06T20:17:40.369Z,95663.53
2023-03-06T20:20:10.749Z,95700.59
2023-03-06T20:22:37.340Z,95691.47
2023-03-06T20:25:04.433Z,95696.66
2023-03-06T20:27:30.928Z,95687.94
2023-03-06T20:29:57.330Z,95716.34
2023-03-06T20:32:23.853Z,95709.41
2023-03-06T20:34:50.389Z,95702.97
2023-03-06T20:37:16.871Z,95704.16
2023-03-06T20:39:43.357Z,95701.84
2023-03-06T20:42:09.877Z,95647.31
2023-03-06T20:44:36.497Z,95710.97
2023-03-06T20:47:02.961Z,95648.34
2023-03-06T20:49:29.472Z,95661.00
2023-03-06T20:51:56.693Z,95695.50
2023-03-06T20:54:23.193Z,95710.25
2023-03-06T20:56:50.244Z,95697.59
2023-03-06T20:59:16.918Z,95688.59
2023-03-06T21:01:45.340Z,95710.66
2023-03-06T21:04:14.017Z,95706.41
2023-03-06T21:06:43.539Z,95685.69
2023-03-06T21:09:10.832Z,95704.44
2023-03-06T21:11:37.296Z,95693.13
2023-03-06T21:14:03.701Z,95699.44
2023-03-06T21:16:30.467Z,95668.53
2023-03-06T21:18:59.310Z,95679.22
2023-03-06T21:21:30.448Z,95699.09
2023-03-06T21:23:57.590Z,95673.13
2023-03-06T21:26:27.511Z,95688.56
2023-03-06T21:28:54.338Z,95689.06
2023-03-06T21:31:22.148Z,95676.31
2023-03-06T21:33:49.984Z,95689.22
2023-03-06T21:36:18.678Z,95686.31
2023-03-06T21:38:45.498Z,95685.25
2023-03-06T21:41:19.163Z,95702.72
2023-03-06T21:43:45.800Z,95693.22
2023-03-06T21:46:13.015Z,95692.41
2023-03-06T21:48:39.681Z,95683.06
2023-03-06T21:51:15.692Z,95686.81
2023-03-06T21:53:43.249Z,95688.41
2023-03-06T21:56:11.027Z,95684.22
2023-03-06T21:58:37.584Z,95666.59
2023-03-06T22:01:16.871Z,95678.47
2023-03-06T22:03:43.594Z,95677.09
2023-03-06T22:06:14.480Z,95682.06
2023-03-06T22:08:41.681Z,95677.47
2023-03-06T22:11:11.274Z,95649.88
2023-03-06T22:13:38.333Z,95671.28
2023-03-06T22:16:06.039Z,95669.13
2023-03-06T22:18:33.225Z,95664.53
2023-03-06T22:20:59.836Z,95628.63
2023-03-06T22:23:26.659Z,95653.16
2023-03-06T22:25:53.184Z,95633.38
2023-03-06T22:28:19.740Z,95631.38
2023-03-06T22:30:46.225Z,95639.69
2023-03-06T22:33:12.736Z,95606.00
2023-03-06T22:35:39.377Z,95640.91
2023-03-06T22:38:06.022Z,95638.72
2023-03-06T22:40:33.291Z,95655.81
2023-03-06T22:42:59.851Z,95646.22
2023-03-06T22:45:27.115Z,95641.84
2023-03-06T22:48:02.328Z,95583.56
2023-03-06T22:50:35.700Z,95635.28
2023-03-06T22:53:02.186Z,95623.84
2023-03-06T22:55:28.642Z,95639.91
2023-03-06T22:57:55.133Z,95595.09
2023-03-06T23:00:21.749Z,95637.47
2023-03-06T23:18:10.843Z,95627.22
2023-03-06T23:20:55.697Z,95627.59
2023-03-06T23:23:42.068Z,95626.56
2023-03-06T23:26:13.393Z,95643.19
2023-03-06T23:28:40.726Z,95636.00
2023-03-06T23:31:16.663Z,95640.34
2023-03-06T23:33:43.230Z,95632.41
2023-03-06T23:36:11.936Z,95641.16
2023-03-06T23:38:39.016Z,95634.38
2023-03-06T23:41:09.022Z,95633.00
2023-03-06T23:43:36.397Z,95633.81
2023-03-06T23:46:03.631Z,95635.59
2023-03-06T23:48:30.452Z,95609.00
2023-03-06T23:50:57.345Z,95616.78
2023-03-06T23:53:23.972Z,95616.59
2023-03-06T23:55:51.549Z,95631.63
2023-03-06T23:58:19.047Z,95632.22
